Time;durP1;ratioP1;P1;durP2;ratioP2;P2;SDS_P1;SDS_P2;PMS_P1;PMS_P2;Temp;Humidity;BMP_temperature;BMP_pressure;BME280_temperature;BME280_humidity;BME280_pressure;Samples;Min_cycle;Max_cycle;Signal;HPM_P1;HPM_P2
2021/04/26 00:03:02;;;;;;;3.42;1.05;;;;;;;-148.56;100.00;61375.16;4998435;28;20041;-32
2021/04/26 00:06:26;;;;;;;3.53;0.93;;;;;;;-148.56;100.00;61375.16;4991300;28;20069;-32
2021/04/26 00:09:50;;;;;;;1.00;0.70;;;;;;;-148.56;100.00;61375.16;4995405;28;20483;-31
2021/04/26 00:13:14;;;;;;;2.00;0.80;;;;;;;-148.56;100.00;61375.16;4992688;28;20036;-31
2021/04/26 00:16:38;;;;;;;1.20;0.80;;;;;;;-148.56;100.00;61375.16;4994115;28;20049;-33
2021/04/26 00:20:05;;;;;;;1.52;0.90;;;;;;;-148.56;100.00;61375.16;5001359;28;20128;-35
2021/04/26 00:23:29;;;;;;;2.10;0.73;;;;;;;-148.56;100.00;61375.16;4996306;28;20030;-26
2021/04/26 00:26:53;;;;;;;2.80;0.75;;;;;;;-148.56;100.00;61375.16;4995212;28;20543;-28
2021/04/26 00:30:17;;;;;;;5.10;1.10;;;;;;;-148.56;100.00;61375.16;4996506;28;20132;-28
2021/04/26 00:33:42;;;;;;;1.50;0.75;;;;;;;-148.56;100.00;61375.16;4998498;28;20117;-30
2021/04/26 00:37:05;;;;;;;0.80;0.70;;;;;;;-148.56;100.00;61375.16;4992500;28;20117;-32
2021/04/26 00:40:29;;;;;;;2.17;0.98;;;;;;;-148.56;100.00;61375.16;5000266;28;20022;-32
2021/04/26 00:43:53;;;;;;;3.60;0.75;;;;;;;-148.56;100.00;61375.16;4994789;28;20029;-33
2021/04/26 00:47:17;;;;;;;3.00;0.90;;;;;;;-148.56;100.00;61375.16;4996081;28;20062;-30
2021/04/26 00:50:42;;;;;;;2.28;0.80;;;;;;;-148.56;100.00;61375.16;4996065;28;20034;-32
2021/04/26 00:54:06;;;;;;;1.70;0.80;;;;;;;-148.56;100.00;61375.16;4991718;28;20017;-31
2021/04/26 00:57:30;;;;;;;4.18;0.90;;;;;;;-148.56;100.00;61375.16;4994339;28;20452;-32
2021/04/26 01:00:54;;;;;;;3.35;1.17;;;;;;;-148.56;100.00;61375.16;4992085;28;20072;-28
2021/04/26 01:04:09;;;;;;;0.80;0.77;;;;;;;-148.56;100.00;71023.69;4996978;28;20038;-35
2021/04/26 01:07:34;;;;;;;2.97;1.00;;;;;;;-148.56;100.00;61375.16;4998109;28;20041;-30
2021/04/26 01:10:59;;;;;;;1.90;0.90;;;;;;;-148.56;100.00;61375.16;4992981;28;21677;-29
2021/04/26 01:14:46;;;;;;;2.45;1.00;;;;;;;26.68;22.33;96841.38;4989039;28;20036;-30
2021/04/26 01:18:14;;;;;;;1.10;0.70;;;;;;;-148.56;100.00;61375.16;4991563;28;20076;-30
2021/04/26 01:21:18;;;;;;;4.40;0.77;;;;;;;26.68;22.33;96841.38;4965929;28;22393;-33
2021/04/26 01:24:12;;;;;;;2.00;1.00;;;;;;;26.60;22.77;96706.00;4998421;28;20535;-34
2021/04/26 01:27:22;;;;;;;5.70;0.95;;;;;;;26.58;22.90;96705.25;4993948;28;20071;-30
2021/04/26 01:30:05;;;;;;;3.03;0.98;;;;;;;26.57;22.92;96703.56;4989637;28;20037;-29
2021/04/26 01:32:43;;;;;;;2.03;0.80;;;;;;;26.56;22.71;96704.50;4995205;28;20045;-35
2021/04/26 01:35:11;;;;;;;3.00;0.93;;;;;;;26.56;22.89;96707.13;4978132;28;20026;-29
2021/04/26 01:37:36;;;;;;;3.85;1.00;;;;;;;26.56;22.83;96704.50;4997748;28;20029;-30
2021/04/26 01:40:07;;;;;;;2.45;0.90;;;;;;;26.55;22.93;96702.78;4992520;28;20037;-29
2021/04/26 01:42:33;;;;;;;2.15;0.75;;;;;;;26.57;22.80;96705.31;4973364;28;20029;-27
2021/04/26 01:45:03;;;;;;;2.60;0.80;;;;;;;26.56;22.87;96712.38;4975834;28;20573;-31
2021/04/26 01:47:29;;;;;;;1.58;1.02;;;;;;;26.55;22.89;96697.53;4996430;28;20044;-31
2021/04/26 01:49:54;;;;;;;2.53;0.98;;;;;;;26.55;22.80;96692.28;4974368;28;20025;-32
2021/04/26 01:52:20;;;;;;;3.08;1.00;;;;;;;26.55;22.92;96689.66;4994245;28;20025;-33
2021/04/26 01:54:45;;;;;;;1.73;0.85;;;;;;;26.56;22.93;96691.38;4979213;28;20080;-30
2021/04/26 01:57:11;;;;;;;2.38;1.10;;;;;;;26.56;22.70;96696.63;4989560;28;20022;-31
2021/04/26 01:59:37;;;;;;;3.30;1.00;;;;;;;26.55;22.97;96694.91;4994925;28;20056;-30
2021/04/26 02:02:02;;;;;;;2.55;0.77;;;;;;;26.55;22.93;96687.00;4963239;28;20029;-29
2021/04/26 02:04:29;;;;;;;1.48;0.95;;;;;;;26.55;22.97;96694.91;4994086;28;20036;-29
2021/04/26 02:06:54;;;;;;;2.53;0.88;;;;;;;26.55;22.98;96687.00;4994033;28;20033;-29
2021/04/26 02:09:20;;;;;;;2.70;0.90;;;;;;;26.56;22.89;96685.25;4994670;28;20454;-36
2021/04/26 02:11:45;;;;;;;1.95;0.75;;;;;;;26.55;22.90;96687.00;4979183;28;20034;-29
2021/04/26 02:14:11;;;;;;;1.83;1.00;;;;;;;26.56;22.87;96686.09;4997911;28;20033;-24
2021/04/26 02:16:37;;;;;;;3.00;1.33;;;;;;;26.55;22.93;96684.38;4994861;28;20510;-30
2021/04/26 02:19:02;;;;;;;2.58;0.85;;;;;;;26.54;22.91;96677.44;4991811;28;20030;-33
2021/04/26 02:21:28;;;;;;;1.98;0.85;;;;;;;26.55;23.04;96678.31;4975402;28;20030;-33
2021/04/26 02:23:54;;;;;;;2.08;0.80;;;;;;;26.54;22.93;96687.97;4993375;28;20022;-29
2021/04/26 02:26:19;;;;;;;0.75;0.68;;;;;;;26.53;22.88;96696.78;4998421;28;20025;-26
2021/04/26 02:28:45;;;;;;;4.03;1.20;;;;;;;26.53;22.85;96686.28;4995054;28;20116;-33
2021/04/26 02:31:13;;;;;;;1.85;0.90;;;;;;;26.54;22.88;96687.97;4995456;28;20646;-34
2021/04/26 02:33:40;;;;;;;2.10;0.82;;;;;;;26.54;23.00;96677.44;4975104;28;20124;-33
2021/04/26 02:36:08;;;;;;;2.08;0.75;;;;;;;26.54;23.00;96677.44;4995449;28;20026;-28
2021/04/26 02:38:37;;;;;;;0.73;0.70;;;;;;;26.54;22.84;96682.69;4993989;28;20033;-29
2021/04/26 02:41:07;;;;;;;0.93;0.70;;;;;;;26.54;22.96;96687.97;4999399;28;20062;-30
2021/04/26 02:43:36;;;;;;;1.25;0.80;;;;;;;26.53;22.99;96675.75;4969086;28;20127;-31
2021/04/26 02:47:02;;;;;;;1.85;0.80;;;;;;;-148.56;100.00;61375.16;4983592;28;20314;-31
2021/04/26 02:50:26;;;;;;;2.05;0.88;;;;;;;-148.56;100.00;61375.16;4998632;28;20152;-27
2021/04/26 02:53:52;;;;;;;1.65;0.80;;;;;;;-148.56;100.00;61375.16;4999745;28;20223;-34
2021/04/26 02:57:16;;;;;;;0.77;0.65;;;;;;;-148.56;100.00;61375.16;4990750;28;20026;-26
2021/04/26 03:00:39;;;;;;;1.95;0.88;;;;;;;-148.56;100.00;61375.16;4996127;28;20602;-32
2021/04/26 03:04:03;;;;;;;1.58;0.95;;;;;;;-148.56;100.00;61375.16;4985766;28;20097;-36
2021/04/26 03:07:27;;;;;;;2.42;0.77;;;;;;;-148.56;100.00;61375.16;4980384;28;20095;-29
2021/04/26 03:10:51;;;;;;;3.92;0.80;;;;;;;-148.56;100.00;61375.16;4993497;28;20036;-32
2021/04/26 03:13:17;;;;;;;2.45;0.80;;;;;;;26.55;22.99;96641.50;4988544;28;20038;-29
2021/04/26 03:15:42;;;;;;;2.90;0.80;;;;;;;26.55;22.89;96637.09;4978419;28;20065;-30
2021/04/26 03:18:07;;;;;;;2.25;0.80;;;;;;;26.53;22.90;96638.97;4987879;28;20037;-34
2021/04/26 03:20:33;;;;;;;1.17;0.68;;;;;;;26.53;23.00;96638.97;4991692;28;20026;-28
2021/04/26 03:22:58;;;;;;;4.63;0.93;;;;;;;26.51;22.89;96640.84;4995610;28;20037;-34
2021/04/26 03:25:24;;;;;;;1.30;0.93;;;;;;;26.51;23.04;96646.13;4994737;28;20607;-28
2021/04/26 03:27:53;;;;;;;0.73;0.60;;;;;;;26.51;22.91;96645.25;4991181;28;21126;-28
2021/04/26 03:30:20;;;;;;;1.45;0.75;;;;;;;26.50;23.10;96639.13;4990868;28;20037;-28
2021/04/26 03:32:46;;;;;;;1.85;0.75;;;;;;;26.50;22.94;96641.78;5000754;28;20029;-29
2021/04/26 03:35:12;;;;;;;1.83;0.73;;;;;;;26.50;23.05;96633.88;4996392;28;20021;-30
2021/04/26 03:37:38;;;;;;;3.90;1.10;;;;;;;26.49;22.94;96626.94;5000589;28;20034;-27
2021/04/26 03:40:04;;;;;;;3.55;1.38;;;;;;;26.50;22.96;96633.06;5003407;28;20040;-28
2021/04/26 03:42:29;;;;;;;2.10;0.95;;;;;;;26.48;23.03;96623.47;5000852;28;20058;-30
2021/04/26 03:44:55;;;;;;;2.10;1.17;;;;;;;26.47;23.12;96627.03;4961385;28;20380;-32
2021/04/26 03:47:20;;;;;;;3.05;0.90;;;;;;;26.46;23.12;96622.72;4992991;28;20034;-31
2021/04/26 03:49:46;;;;;;;1.55;0.80;;;;;;;26.47;23.13;96623.56;4993766;28;20034;-33
2021/04/26 03:52:11;;;;;;;1.05;0.60;;;;;;;26.46;23.05;96619.22;4998324;28;20026;-30
2021/04/26 03:54:36;;;;;;;3.05;0.90;;;;;;;26.46;23.04;96611.34;4963154;28;20026;-31
2021/04/26 03:57:02;;;;;;;1.90;0.90;;;;;;;26.45;23.24;96610.53;4975963;28;20057;-29
2021/04/26 03:59:28;;;;;;;2.85;0.90;;;;;;;26.45;23.10;96609.66;4983020;28;20443;-32
2021/04/26 04:01:53;;;;;;;1.92;0.82;;;;;;;26.45;22.98;96614.91;5000420;28;20411;-36
2021/04/26 04:04:19;;;;;;;2.03;1.05;;;;;;;26.45;23.04;96612.28;4962792;28;20029;-28
2021/04/26 04:06:44;;;;;;;2.15;1.00;;;;;;;26.46;23.02;96611.34;4997271;28;20596;-32
2021/04/26 04:09:09;;;;;;;0.95;0.70;;;;;;;26.45;23.08;96604.41;5001011;28;20507;-28
2021/04/26 04:11:35;;;;;;;1.40;0.90;;;;;;;26.44;23.07;96598.34;5002278;28;20037;-34
2021/04/26 04:14:01;;;;;;;1.35;0.80;;;;;;;26.45;23.00;96599.16;4972116;28;20068;-25
2021/04/26 04:16:27;;;;;;;2.63;0.85;;;;;;;26.44;22.96;96602.72;4984897;28;20982;-29
2021/04/26 04:18:52;;;;;;;2.22;1.10;;;;;;;26.45;23.00;96601.78;4991226;28;20674;-29
2021/04/26 04:21:17;;;;;;;3.17;1.58;;;;;;;26.45;23.06;96607.03;4998780;28;20032;-28
2021/04/26 04:23:43;;;;;;;2.42;1.58;;;;;;;26.44;22.94;96602.72;4996114;28;20061;-32
2021/04/26 04:26:08;;;;;;;4.28;1.50;;;;;;;26.44;22.98;96608.84;4997418;28;20423;-26
2021/04/26 04:28:34;;;;;;;6.97;2.03;;;;;;;26.43;23.15;96611.56;4998248;28;20025;-32
2021/04/26 04:31:02;;;;;;;5.05;1.75;;;;;;;26.44;22.98;96607.97;4980188;28;20034;-31
2021/04/26 04:33:27;;;;;;;3.45;2.08;;;;;;;26.42;23.16;96609.84;4998361;28;20072;-34
2021/04/26 04:35:53;;;;;;;2.40;1.67;;;;;;;26.42;23.00;96604.59;4998969;28;20030;-30
2021/04/26 04:38:18;;;;;;;3.08;2.03;;;;;;;26.43;23.09;96611.56;4995923;28;20392;-32
2021/04/26 04:40:44;;;;;;;3.55;2.00;;;;;;;26.41;22.97;96609.00;4992708;28;20036;-33
2021/04/26 04:43:09;;;;;;;3.35;1.95;;;;;;;26.41;22.91;96608.16;4992319;28;20100;-33
2021/04/26 04:45:34;;;;;;;5.70;1.88;;;;;;;26.42;22.97;96612.47;4995347;28;20026;-33
2021/04/26 04:48:00;;;;;;;4.00;1.63;;;;;;;26.42;22.99;96610.69;4996735;28;20038;-31
2021/04/26 04:50:25;;;;;;;2.90;1.85;;;;;;;26.41;23.02;96610.78;5001127;28;20025;-28
2021/04/26 04:52:51;;;;;;;3.03;1.88;;;;;;;26.41;23.27;96608.16;5001973;28;20595;-29
2021/04/26 04:55:16;;;;;;;3.33;1.88;;;;;;;26.41;23.00;96616.03;5000645;28;20029;-34
2021/04/26 04:57:41;;;;;;;4.85;2.40;;;;;;;26.40;23.00;96615.22;4994812;28;20099;-27
2021/04/26 05:00:07;;;;;;;2.85;1.88;;;;;;;26.42;23.10;96628.22;4982776;28;20030;-33
2021/04/26 05:02:33;;;;;;;2.97;1.83;;;;;;;26.40;23.16;96628.34;4994665;28;20549;-32
2021/04/26 05:04:58;;;;;;;4.07;1.90;;;;;;;26.40;23.01;96622.22;4997532;28;20064;-29
2021/04/26 05:07:23;;;;;;;4.80;2.13;;;;;;;26.40;23.04;96622.22;4993185;28;20064;-31
2021/04/26 05:09:49;;;;;;;4.75;2.00;;;;;;;26.39;23.05;96623.19;4995858;28;20048;-30
2021/04/26 05:12:15;;;;;;;2.83;1.98;;;;;;;26.39;23.02;96624.00;4977104;28;20503;-29
2021/04/26 05:14:41;;;;;;;5.05;2.00;;;;;;;26.39;22.98;96631.06;5000061;28;20072;-29
2021/04/26 05:17:07;;;;;;;4.50;2.20;;;;;;;26.38;23.14;96637.25;4994850;28;20099;-32
2021/04/26 05:19:32;;;;;;;3.13;1.98;;;;;;;26.39;22.98;96636.31;4994376;28;20034;-27
2021/04/26 05:21:58;;;;;;;2.83;2.00;;;;;;;26.38;23.09;96639.88;4975327;28;20111;-30
2021/04/26 05:25:21;;;;;;;4.32;1.88;;;;;;;-148.56;100.00;61375.16;4991640;28;20030;-28
2021/04/26 05:28:45;;;;;;;4.78;2.00;;;;;;;-148.56;100.00;61375.16;4994632;28;20039;-25
2021/04/26 05:32:09;;;;;;;4.78;1.90;;;;;;;-148.56;100.00;61375.16;4992119;28;20030;-27
2021/04/26 05:35:33;;;;;;;2.80;1.92;;;;;;;-148.56;100.00;61375.16;5003679;28;20121;-31
2021/04/26 05:38:11;;;;;;;4.00;2.28;;;;;;;26.41;23.04;96634.44;4996955;28;20127;-28
2021/04/26 05:40:52;;;;;;;3.10;1.95;;;;;;;26.41;23.04;96634.44;4978845;28;20123;-31
2021/04/26 05:43:18;;;;;;;3.45;2.00;;;;;;;26.37;23.13;96633.78;4992131;28;20033;-29
2021/04/26 05:45:43;;;;;;;5.05;1.90;;;;;;;26.35;23.25;96633.84;4977388;28;20034;-32
2021/04/26 05:48:09;;;;;;;2.78;1.90;;;;;;;26.36;23.00;96637.34;4978926;28;20040;-28
2021/04/26 05:51:33;;;;;;;4.93;1.92;;;;;;;-148.56;100.00;61375.16;4991807;28;20497;-30
2021/04/26 05:54:57;;;;;;;4.45;1.92;;;;;;;-148.56;100.00;61375.16;4993749;28;20040;-31
2021/04/26 05:58:21;;;;;;;10.50;3.80;;;;;;;-148.56;100.00;61375.16;4988246;28;20044;-28
2021/04/26 06:00:47;;;;;;;29.15;4.28;;;;;;;26.40;23.19;96627.50;4989136;28;20086;-35
2021/04/26 06:03:12;;;;;;;25.85;4.20;;;;;;;26.37;23.22;96627.66;4974803;28;20374;-25
2021/04/26 06:05:37;;;;;;;11.35;2.65;;;;;;;26.35;23.18;96631.22;4992293;28;20041;-31
2021/04/26 06:09:02;;;;;;;6.40;2.20;;;;;;;-148.56;100.00;61375.16;4997216;28;20371;-30
2021/04/26 06:12:26;;;;;;;3.97;2.22;;;;;;;-148.56;100.00;61375.16;4990000;28;20049;-25
2021/04/26 06:15:50;;;;;;;5.15;2.25;;;;;;;-148.56;100.00;61375.16;4989480;28;20030;-31
2021/04/26 06:19:14;;;;;;;9.88;2.38;;;;;;;-148.56;100.00;61375.16;4992549;28;20064;-31
2021/04/26 06:22:38;;;;;;;6.45;2.00;;;;;;;-148.56;100.00;61375.16;4984299;28;20030;-29
2021/04/26 06:26:02;;;;;;;8.43;2.13;;;;;;;-148.56;100.00;61375.16;4988614;28;20036;-30
2021/04/26 06:29:26;;;;;;;5.00;2.17;;;;;;;-148.56;100.00;61375.16;4989244;28;20119;-30
2021/04/26 06:32:50;;;;;;;7.25;2.20;;;;;;;-148.56;100.00;61375.16;4991148;28;20116;-32
2021/04/26 06:36:14;;;;;;;5.30;2.20;;;;;;;-148.56;100.00;61375.16;4992225;28;20242;-31
2021/04/26 06:39:40;;;;;;;6.38;2.15;;;;;;;-148.56;100.00;61375.16;4991388;28;20500;-29
2021/04/26 06:43:04;;;;;;;4.75;1.90;;;;;;;-148.56;100.00;61375.16;4990273;28;20040;-28
2021/04/26 06:45:29;;;;;;;4.22;1.83;;;;;;;26.52;23.32;96634.66;4990182;28;20073;-31
2021/04/26 06:47:55;;;;;;;3.42;2.00;;;;;;;26.51;23.17;96632.97;4995720;28;20041;-33
2021/04/26 06:50:21;;;;;;;4.45;1.88;;;;;;;26.52;23.24;96633.81;4987814;28;20034;-29
2021/04/26 06:52:47;;;;;;;5.55;1.80;;;;;;;26.52;23.37;96625.91;4989725;28;20034;-28
2021/04/26 06:55:13;;;;;;;4.25;1.80;;;;;;;26.52;23.22;96626.78;4986234;28;20104;-27
2021/04/26 06:57:38;;;;;;;3.58;1.52;;;;;;;26.54;23.32;96624.88;4987916;28;20407;-29
2021/04/26 07:00:05;;;;;;;3.15;1.60;;;;;;;26.55;23.22;96628.38;4989791;28;20061;-32
2021/04/26 07:02:30;;;;;;;4.45;1.90;;;;;;;26.56;23.36;96623.03;4989070;28;20033;-30
2021/04/26 07:05:54;;;;;;;6.00;2.03;;;;;;;-148.56;100.00;61375.16;4989983;28;20034;-29
2021/04/26 07:09:18;;;;;;;3.35;1.80;;;;;;;-148.56;100.00;61375.16;4991202;28;20508;-34
2021/04/26 07:12:42;;;;;;;3.95;1.83;;;;;;;-148.56;100.00;61375.16;4988926;28;20036;-33
2021/04/26 07:16:07;;;;;;;3.45;1.92;;;;;;;-148.56;100.00;61375.16;4992631;28;20088;-30
2021/04/26 07:19:31;;;;;;;4.57;1.98;;;;;;;-148.56;100.00;61375.16;4987337;28;20029;-28
2021/04/26 07:22:55;;;;;;;3.08;1.83;;;;;;;-148.56;100.00;61375.16;4990533;28;20030;-35
2021/04/26 07:26:19;;;;;;;7.35;3.22;;;;;;;-148.56;100.00;61375.16;4970742;28;20666;-34
2021/04/26 07:29:43;;;;;;;7.40;2.42;;;;;;;-148.56;100.00;61375.16;4987773;28;20663;-30
2021/04/26 07:32:08;;;;;;;5.50;1.83;;;;;;;26.64;22.73;96614.69;4990566;28;20484;-29
2021/04/26 07:34:33;;;;;;;3.00;1.48;;;;;;;26.63;22.68;96607.75;4989247;28;20033;-32
2021/04/26 07:36:59;;;;;;;3.15;1.77;;;;;;;26.63;22.84;96604.25;4988994;28;20034;-30
2021/04/26 07:39:24;;;;;;;3.17;1.60;;;;;;;26.65;23.01;96607.66;4990293;28;20152;-31
2021/04/26 07:41:50;;;;;;;4.65;1.80;;;;;;;26.65;23.16;96605.03;4992102;28;20582;-29
2021/04/26 07:44:15;;;;;;;3.30;1.50;;;;;;;26.64;23.14;96603.31;4972753;28;20025;-33
2021/04/26 07:46:41;;;;;;;28.35;3.80;;;;;;;26.66;22.22;96601.47;4990054;28;20033;-29
2021/04/26 07:49:06;;;;;;;14.70;3.47;;;;;;;26.61;21.74;96593.84;4994680;28;20033;-36
2021/04/26 07:51:31;;;;;;;9.52;3.17;;;;;;;26.54;21.11;96592.53;4968734;28;20061;-31
2021/04/26 07:53:57;;;;;;;8.10;3.22;;;;;;;26.40;20.35;96591.56;4991525;28;20026;-31
2021/04/26 07:56:22;;;;;;;5.57;3.28;;;;;;;26.24;20.21;96604.72;4988656;28;20028;-26
2021/04/26 07:58:48;;;;;;;15.85;4.00;;;;;;;26.08;19.53;96595.09;4977435;28;20046;-34
2021/04/26 08:01:13;;;;;;;18.33;4.10;;;;;;;25.94;19.50;96595.03;4984689;28;20242;-28
2021/04/26 08:03:38;;;;;;;12.95;4.25;;;;;;;25.85;19.97;96590.31;4993017;28;20080;-30
2021/04/26 08:06:04;;;;;;;11.35;3.92;;;;;;;25.79;19.95;96589.72;4987273;28;20636;-28
2021/04/26 08:08:31;;;;;;;18.98;4.20;;;;;;;25.77;20.09;96588.94;4984774;28;20033;-35
2021/04/26 08:10:56;;;;;;;19.13;4.32;;;;;;;25.76;20.51;96584.66;4983265;28;20068;-27
2021/04/26 08:13:22;;;;;;;14.02;3.78;;;;;;;25.78;20.73;96584.56;4979914;28;20038;-30
2021/04/26 08:15:47;;;;;;;14.38;3.97;;;;;;;25.80;20.79;96586.16;4982735;28;22565;-31
2021/04/26 08:18:13;;;;;;;15.57;3.88;;;;;;;25.83;20.84;96579.91;4987260;28;20034;-30
2021/04/26 08:20:38;;;;;;;11.80;3.42;;;;;;;25.86;20.98;96574.47;4984392;28;20045;-28
2021/04/26 08:23:04;;;;;;;12.88;3.55;;;;;;;25.90;20.97;96573.34;4986936;28;20028;-34
2021/04/26 08:25:29;;;;;;;15.40;4.20;;;;;;;25.93;21.05;96570.53;4983575;28;20037;-28
2021/04/26 08:27:58;;;;;;;13.50;3.40;;;;;;;25.96;20.99;96569.53;4984001;28;20037;-31
2021/04/26 08:30:23;;;;;;;9.18;3.30;;;;;;;26.00;21.24;96568.41;4961021;28;20092;-32
2021/04/26 08:32:49;;;;;;;13.88;3.10;;;;;;;26.02;21.31;96566.56;4991199;28;20124;-33
2021/04/26 08:35:14;;;;;;;11.02;3.00;;;;;;;26.05;21.27;96566.38;4985894;28;20109;-30
2021/04/26 08:37:40;;;;;;;13.75;3.30;;;;;;;26.08;21.44;96565.34;4987287;28;20033;-32
2021/04/26 08:40:07;;;;;;;15.52;3.10;;;;;;;26.10;21.28;96559.06;4985214;28;20037;-29
2021/04/26 08:42:33;;;;;;;9.52;3.30;;;;;;;26.13;21.51;96551.97;4988776;28;20041;-28
2021/04/26 08:44:58;;;;;;;16.35;3.20;;;;;;;26.16;21.43;96557.03;4987119;28;20025;-29
2021/04/26 08:47:25;;;;;;;9.05;2.53;;;;;;;26.18;21.43;96555.16;4986790;28;20040;-32
2021/04/26 08:49:55;;;;;;;6.28;2.80;;;;;;;26.19;21.67;96552.44;4991210;28;20038;-26
2021/04/26 08:52:20;;;;;;;9.50;3.22;;;;;;;26.22;21.72;96556.66;4990994;28;20575;-25
2021/04/26 08:54:46;;;;;;;9.90;2.70;;;;;;;26.24;21.68;96554.81;4991503;28;20040;-31
2021/04/26 08:57:11;;;;;;;11.48;3.08;;;;;;;26.25;21.73;96545.13;4992798;28;20053;-29
2021/04/26 08:59:42;;;;;;;9.20;3.35;;;;;;;26.26;21.75;96558.22;4974049;28;20037;-32
2021/04/26 09:02:07;;;;;;;8.07;2.75;;;;;;;26.28;21.79;96555.50;4990331;28;20496;-30
2021/04/26 09:04:36;;;;;;;8.27;2.55;;;;;;;26.29;21.95;96559.81;4989939;28;20117;-34
2021/04/26 09:07:04;;;;;;;9.70;2.75;;;;;;;26.30;21.95;96562.34;4998694;28;20487;-33
2021/04/26 09:09:43;;;;;;;7.13;2.75;;;;;;;26.33;21.91;96563.94;4999471;28;20571;-30
2021/04/26 09:12:12;;;;;;;7.25;2.50;;;;;;;26.33;22.07;96561.31;4994362;28;20038;-31
2021/04/26 09:14:41;;;;;;;5.57;2.50;;;;;;;26.34;22.16;96557.75;4997144;28;20038;-28
2021/04/26 09:17:29;;;;;;;7.40;2.78;;;;;;;26.35;22.14;96557.66;4997536;28;20046;-29
2021/04/26 09:19:56;;;;;;;7.03;2.78;;;;;;;26.37;22.27;96559.34;4994629;28;20519;-32
2021/04/26 09:22:53;;;;;;;5.97;2.22;;;;;;;26.37;22.12;96557.56;4996700;28;20057;-28
2021/04/26 09:25:30;;;;;;;10.55;2.78;;;;;;;26.38;22.22;96561.06;5002411;28;20270;-30
2021/04/26 09:27:56;;;;;;;5.32;2.45;;;;;;;26.38;22.21;96555.81;4989354;28;20030;-30
2021/04/26 09:30:38;;;;;;;7.15;2.58;;;;;;;26.40;22.24;96551.28;4991898;28;22180;-32
2021/04/26 09:33:33;;;;;;;4.63;2.20;;;;;;;26.40;22.28;96548.66;4995349;28;20049;-26
2021/04/26 09:36:05;;;;;;;5.75;2.42;;;;;;;26.41;22.35;96548.59;5001465;28;20030;-27
2021/04/26 09:38:31;;;;;;;7.88;2.55;;;;;;;26.41;22.35;96540.69;4992016;28;20061;-33
2021/04/26 09:41:22;;;;;;;5.13;2.25;;;;;;;26.38;22.42;96534.78;4998492;28;20037;-32
2021/04/26 09:43:50;;;;;;;5.47;2.17;;;;;;;26.43;22.32;96537.97;4996312;28;20036;-32
2021/04/26 09:46:16;;;;;;;5.15;2.10;;;;;;;26.45;22.46;96541.34;4990551;28;20060;-30
2021/04/26 09:48:41;;;;;;;4.07;1.90;;;;;;;26.45;22.43;96541.34;4996845;28;20034;-28
2021/04/26 09:51:20;;;;;;;3.75;2.00;;;;;;;26.46;22.64;96537.78;5000630;28;20030;-32
2021/04/26 09:53:52;;;;;;;5.68;2.45;;;;;;;26.46;22.71;96548.28;4990780;28;20018;-29
2021/04/26 09:56:24;;;;;;;;;;;;;;;26.47;22.53;96547.38;4994830;28;20030;-30
2021/04/26 09:58:51;;;;;;;3.60;2.25;;;;;;;26.47;22.70;96539.50;4997289;28;19917;-29
2021/04/26 10:01:17;;;;;;;3.42;2.10;;;;;;;26.48;22.75;96541.19;4993769;28;20057;-27
2021/04/26 10:03:42;;;;;;;5.70;2.22;;;;;;;26.48;22.59;96541.19;5001696;28;20037;-31
2021/04/26 10:06:11;;;;;;;3.47;2.05;;;;;;;26.48;22.67;96551.69;4993113;28;20034;-27
2021/04/26 10:08:37;;;;;;;5.07;2.30;;;;;;;26.50;22.73;96539.28;4996953;28;20037;-28
2021/04/26 10:11:02;;;;;;;3.80;2.22;;;;;;;26.50;22.66;96544.53;4997282;28;20052;-35
2021/04/26 10:13:28;;;;;;;4.20;2.15;;;;;;;26.51;22.79;96541.00;4997230;28;20381;-30
2021/04/26 10:16:00;;;;;;;6.97;1.80;;;;;;;26.51;22.63;96540.16;4999912;28;20104;-30
2021/04/26 10:18:37;;;;;;;4.18;1.92;;;;;;;26.51;22.77;96538.38;4981664;28;20100;-29
2021/04/26 10:21:23;;;;;;;6.85;2.33;;;;;;;26.53;22.81;96533.00;4974449;28;20748;-31
2021/04/26 10:23:49;;;;;;;3.28;1.70;;;;;;;26.53;22.90;96536.47;4991445;28;20044;-34
2021/04/26 10:26:40;;;;;;;4.07;1.70;;;;;;;26.54;22.77;96525.03;4988553;28;20034;-29
2021/04/26 10:29:09;;;;;;;3.58;1.85;;;;;;;26.55;22.74;96525.88;4992292;28;20030;-30
2021/04/26 10:31:59;;;;;;;2.67;1.80;;;;;;;26.55;22.79;96515.38;4981122;28;20052;-36
2021/04/26 10:34:28;;;;;;;4.72;1.90;;;;;;;26.56;22.91;96517.06;4985919;28;20026;-31
2021/04/26 10:36:54;;;;;;;3.08;1.90;;;;;;;26.55;22.76;96510.94;4979779;28;20079;-32
2021/04/26 10:39:21;;;;;;;4.78;2.40;;;;;;;26.57;22.88;96508.22;4980180;28;20468;-30
2021/04/26 10:41:57;;;;;;;3.00;1.70;;;;;;;26.58;23.01;96515.19;4980611;28;20686;-31
2021/04/26 10:44:41;;;;;;;5.63;1.90;;;;;;;26.58;22.90;96515.19;4982766;28;20760;-31
2021/04/26 10:47:25;;;;;;;7.60;1.85;;;;;;;26.58;22.92;96510.75;4981579;28;20034;-28
2021/04/26 10:50:00;;;;;;;3.67;1.75;;;;;;;26.59;22.98;96501.09;4981637;28;20707;-29
2021/04/26 10:52:29;;;;;;;3.38;1.70;;;;;;;26.60;22.86;96492.28;4964564;28;20129;-31
2021/04/26 10:54:54;;;;;;;4.43;1.70;;;;;;;26.60;22.81;96503.66;4983997;28;20045;-31
2021/04/26 10:57:33;;;;;;;5.75;2.72;;;;;;;26.60;21.86;96490.50;4985935;28;20842;-31
2021/04/26 11:00:20;;;;;;;5.80;2.90;;;;;;;26.57;21.27;96497.72;4988038;28;20026;-32
2021/04/26 11:02:55;;;;;;;4.72;2.75;;;;;;;26.55;21.31;96495.19;4982489;28;20077;-30
2021/04/26 11:05:29;;;;;;;7.38;2.70;;;;;;;26.52;20.95;96489.28;4984435;28;20156;-30
2021/04/26 11:10:34;;;;;;;6.90;3.03;;;;;;;26.44;20.48;96476.59;4987539;28;20200;-32
2021/04/26 11:13:01;;;;;;;4.72;2.53;;;;;;;26.41;20.36;96471.53;4981501;28;20076;-29
2021/04/26 11:15:27;;;;;;;7.65;2.63;;;;;;;26.38;20.19;96455.97;4981968;28;20036;-31
2021/04/26 11:17:53;;;;;;;7.75;2.80;;;;;;;26.37;20.02;96449.00;4979333;28;20050;-32
2021/04/26 11:20:20;;;;;;;5.10;2.25;;;;;;;26.34;20.19;96450.91;4979569;28;20022;-26
2021/04/26 11:22:45;;;;;;;4.65;2.35;;;;;;;26.30;19.98;96446.78;4983117;28;20041;-31
2021/04/26 11:25:30;;;;;;;4.78;2.40;;;;;;;26.29;19.87;96452.97;4978353;28;20695;-28
2021/04/26 11:27:56;;;;;;;5.97;2.70;;;;;;;26.28;19.93;96448.63;4983204;28;20022;-29
2021/04/26 11:30:22;;;;;;;5.07;2.70;;;;;;;26.26;19.67;96442.63;4982523;28;20021;-27
2021/04/26 11:32:55;;;;;;;6.68;3.17;;;;;;;26.24;19.58;96434.00;4984419;28;20025;-31
2021/04/26 11:35:21;;;;;;;6.43;2.40;;;;;;;26.23;19.46;96427.03;4966363;28;20034;-28
2021/04/26 11:37:46;;;;;;;7.40;2.90;;;;;;;26.22;19.54;96430.59;4979367;28;20034;-32
2021/04/26 11:40:22;;;;;;;5.20;2.58;;;;;;;26.21;19.28;96421.03;4976945;28;20084;-27
2021/04/26 11:42:48;;;;;;;5.85;3.00;;;;;;;26.20;19.26;96416.72;4983600;28;20080;-35
2021/04/26 11:45:14;;;;;;;6.82;2.72;;;;;;;26.18;19.14;96423.84;4984022;28;20424;-29
2021/04/26 11:47:39;;;;;;;5.75;2.95;;;;;;;26.17;19.25;96412.50;4977010;28;20041;-29
2021/04/26 11:50:06;;;;;;;4.78;2.70;;;;;;;26.17;19.08;96411.66;4967897;28;20026;-31
2021/04/26 11:52:32;;;;;;;9.85;3.10;;;;;;;26.16;19.13;96409.97;4973216;28;20621;-25
2021/04/26 11:55:04;;;;;;;4.75;2.72;;;;;;;26.12;19.08;96393.53;4990526;28;20068;-31
2021/04/26 11:57:46;;;;;;;7.18;3.00;;;;;;;26.14;19.17;96398.69;4984704;28;20776;-32
2021/04/26 12:00:24;;;;;;;4.95;2.55;;;;;;;26.13;18.86;96392.63;4981426;28;20907;-28
2021/04/26 12:02:51;;;;;;;5.10;2.50;;;;;;;26.08;18.91;96379.75;4984352;28;20033;-30
2021/04/26 12:05:20;;;;;;;6.35;2.60;;;;;;;26.12;18.80;96379.59;4983331;28;20105;-30
2021/04/26 12:07:46;;;;;;;6.50;2.90;;;;;;;26.10;18.79;96367.38;4989162;28;20675;-33
2021/04/26 12:10:13;;;;;;;4.85;2.35;;;;;;;26.09;18.80;96370.94;4987368;28;20021;-31
2021/04/26 12:12:39;;;;;;;6.35;2.67;;;;;;;26.10;18.90;96370.00;4987463;28;20045;-36
2021/04/26 12:15:07;;;;;;;4.15;2.60;;;;;;;26.10;18.85;96370.00;4988740;28;20053;-32
2021/04/26 12:17:35;;;;;;;13.52;3.13;;;;;;;26.10;18.68;96372.63;4967994;28;20034;-33
2021/04/26 12:20:01;;;;;;;5.28;2.80;;;;;;;26.10;18.58;96359.50;4994800;28;20096;-30
2021/04/26 12:22:32;;;;;;;7.38;2.90;;;;;;;26.09;18.55;96362.22;4983799;28;20106;-28
2021/04/26 12:24:57;;;;;;;6.03;2.47;;;;;;;26.07;18.43;96354.44;4979523;28;20089;-29
2021/04/26 12:28:23;;;;;;;7.10;2.92;;;;;;;-148.56;100.00;61375.16;4995673;28;20041;-31
2021/04/26 12:31:48;;;;;;;5.78;2.90;;;;;;;-148.56;100.00;61375.16;5000198;28;20033;-28